X  Close Metar Aviation Weather Data     ENGM Oslo Airport, Gardermoen
Temperature
8°C Temperature
-7°C Dewpoint
34% Humidity



Wind
2 M/S
5 MPH
8 KM/H
4 KTS



Calm
North
Current Conditions

Clear Clear
Pressure 1002.03 (hPa) - 29.59 (inHg)
Visibility 6 (mile) - 9.7 (km)
Airport
Airport-code ENGM

Location: Oslo Airport, Gardermoen
Distance: 6 (km)

Metar:
ENGM 151320Z VRB04KT CAVOK 08/M07 Q1002 NOSIG

Time: 15-04-2024 13:20 CEST